createdAt,value
2019-04-26T00:00:17.118Z,16.74
2019-04-26T00:01:16.956Z,16.71
2019-04-26T00:02:16.962Z,16.90
2019-04-26T00:03:16.957Z,16.92
2019-04-26T00:04:16.934Z,16.96
2019-04-26T00:05:16.916Z,16.90
2019-04-26T00:06:16.922Z,16.93
2019-04-26T00:07:16.893Z,16.90
2019-04-26T00:08:17.825Z,16.86
2019-04-26T00:09:17.867Z,16.92
2019-04-26T00:10:16.867Z,16.89
2019-04-26T00:11:16.860Z,16.96
2019-04-26T00:12:16.838Z,16.92
2019-04-26T00:13:16.835Z,16.90
2019-04-26T00:14:16.819Z,16.85
2019-04-26T00:15:16.819Z,16.68
2019-04-26T00:16:16.854Z,16.77
2019-04-26T00:17:17.542Z,16.71
2019-04-26T00:18:16.815Z,16.71
2019-04-26T00:19:16.951Z,16.62
2019-04-26T00:20:17.136Z,16.73
2019-04-26T00:21:16.741Z,16.68
2019-04-26T00:22:17.137Z,16.70
2019-04-26T00:23:16.712Z,16.67
2019-04-26T00:24:17.244Z,16.59
2019-04-26T00:25:16.702Z,16.55
2019-04-26T00:26:17.653Z,16.50
2019-04-26T00:27:16.909Z,16.48
2019-04-26T00:28:17.026Z,16.45
2019-04-26T00:29:16.872Z,16.48
2019-04-26T00:30:16.983Z,16.48
2019-04-26T00:31:17.203Z,16.42
2019-04-26T00:32:17.242Z,16.31
2019-04-26T00:33:17.289Z,16.27
2019-04-26T00:34:17.466Z,16.20
2019-04-26T00:35:16.580Z,16.23
2019-04-26T00:36:16.693Z,16.18
2019-04-26T00:37:16.571Z,16.06
2019-04-26T00:38:16.544Z,15.93
2019-04-26T00:39:16.551Z,15.92
2019-04-26T00:40:16.533Z,15.82
2019-04-26T00:41:16.517Z,15.72
2019-04-26T00:42:16.586Z,15.67
2019-04-26T00:43:16.492Z,15.64
2019-04-26T00:44:16.619Z,15.60
2019-04-26T00:45:16.765Z,15.51
2019-04-26T00:46:16.794Z,15.35
2019-04-26T00:47:16.965Z,15.31
2019-04-26T00:48:16.855Z,15.21
2019-04-26T00:49:17.086Z,15.28
2019-04-26T00:50:17.158Z,15.38
2019-04-26T00:51:17.273Z,15.56
2019-04-26T00:52:17.395Z,15.66
2019-04-26T00:53:17.515Z,15.74
2019-04-26T00:54:16.378Z,15.75
2019-04-26T00:55:16.711Z,15.74
2019-04-26T00:56:16.364Z,15.67
2019-04-26T00:57:16.337Z,15.70
2019-04-26T00:58:16.437Z,15.52
2019-04-26T00:59:16.485Z,15.61
2019-04-26T01:00:16.915Z,15.48
2019-04-26T01:01:16.525Z,15.51
2019-04-26T01:02:16.650Z,15.38
2019-04-26T01:03:16.664Z,15.51
2019-04-26T01:04:17.065Z,15.31
2019-04-26T01:05:17.070Z,15.35
2019-04-26T01:06:17.029Z,15.33
2019-04-26T01:07:16.954Z,15.42
2019-04-26T01:08:17.058Z,15.33
2019-04-26T01:09:17.372Z,15.36
2019-04-26T01:10:16.741Z,15.30
2019-04-26T01:11:16.745Z,15.28
2019-04-26T01:12:16.812Z,15.31
2019-04-26T01:13:16.445Z,15.33
2019-04-26T01:14:16.622Z,15.24
2019-04-26T01:15:18.803Z,15.20
2019-04-26T01:16:17.409Z,15.17
2019-04-26T01:17:17.185Z,15.11
2019-04-26T01:18:16.842Z,15.11
2019-04-26T01:19:17.069Z,15.01
2019-04-26T01:20:17.284Z,14.99
2019-04-26T01:21:17.157Z,14.91
2019-04-26T01:22:16.820Z,14.81
2019-04-26T01:23:17.377Z,14.84
2019-04-26T01:24:16.737Z,14.75
2019-04-26T01:25:17.512Z,14.75
2019-04-26T01:26:16.921Z,14.71
2019-04-26T01:27:17.110Z,14.74
2019-04-26T01:28:17.084Z,14.72
2019-04-26T01:29:15.974Z,14.69
2019-04-26T01:30:15.973Z,14.67
2019-04-26T01:31:15.978Z,14.54
2019-04-26T01:32:15.939Z,14.56
2019-04-26T01:33:15.929Z,14.47
2019-04-26T01:34:15.919Z,14.50
2019-04-26T01:35:15.904Z,14.37
2019-04-26T01:36:15.908Z,14.39
2019-04-26T01:37:15.898Z,14.32
2019-04-26T01:38:15.872Z,14.29
2019-04-26T01:39:15.865Z,14.32
2019-04-26T01:40:15.857Z,14.20
2019-04-26T01:41:15.851Z,14.31
2019-04-26T01:42:15.859Z,14.20
2019-04-26T01:43:15.816Z,14.25
2019-04-26T01:44:15.808Z,14.17
2019-04-26T01:45:15.795Z,14.19
2019-04-26T01:46:15.786Z,14.20
2019-04-26T01:47:15.804Z,14.14
2019-04-26T01:48:15.771Z,14.14
2019-04-26T01:49:15.749Z,14.13
2019-04-26T01:50:15.739Z,14.09
2019-04-26T01:51:15.729Z,14.13
2019-04-26T01:52:15.716Z,14.07
2019-04-26T01:53:15.716Z,14.09
2019-04-26T01:54:15.701Z,14.09
2019-04-26T01:55:15.682Z,14.04
2019-04-26T01:56:15.670Z,13.92
2019-04-26T01:57:15.659Z,13.96
2019-04-26T01:58:15.663Z,14.02
2019-04-26T01:59:15.639Z,13.99
2019-04-26T02:00:15.646Z,14.01
2019-04-26T02:01:15.616Z,13.94
2019-04-26T02:02:15.605Z,13.96
2019-04-26T02:03:15.617Z,13.80
2019-04-26T02:04:15.581Z,13.88
2019-04-26T02:05:15.570Z,13.81
2019-04-26T02:06:24.988Z,13.76
2019-04-26T02:07:16.547Z,13.74
2019-04-26T02:08:15.539Z,13.73
2019-04-26T02:09:15.540Z,13.69
2019-04-26T02:10:15.582Z,13.69
2019-04-26T02:11:15.502Z,13.58
2019-04-26T02:12:15.507Z,13.62
2019-04-26T02:13:15.484Z,13.55
2019-04-26T02:14:15.472Z,13.46
2019-04-26T02:15:15.474Z,13.56
2019-04-26T02:16:15.450Z,13.56
2019-04-26T02:17:15.439Z,13.52
2019-04-26T02:18:15.436Z,13.51
2019-04-26T02:19:15.415Z,13.54
2019-04-26T02:20:15.416Z,13.41
2019-04-26T02:21:15.437Z,13.37
2019-04-26T02:22:15.383Z,13.43
2019-04-26T02:23:15.372Z,13.32
2019-04-26T02:24:15.371Z,13.25
2019-04-26T02:25:15.370Z,13.27
2019-04-26T02:26:15.338Z,13.33
2019-04-26T02:27:15.326Z,13.24
2019-04-26T02:28:15.332Z,13.11
2019-04-26T02:29:15.303Z,13.02
2019-04-26T02:30:15.308Z,13.07
2019-04-26T02:31:15.311Z,12.95
2019-04-26T02:32:15.295Z,12.99
2019-04-26T02:33:15.262Z,12.84
2019-04-26T02:34:15.250Z,12.88
2019-04-26T02:35:15.237Z,12.81
2019-04-26T02:36:15.243Z,12.79
2019-04-26T02:37:15.228Z,12.82
2019-04-26T02:38:15.203Z,12.71
2019-04-26T02:39:15.200Z,12.64
2019-04-26T02:40:15.179Z,12.67
2019-04-26T02:41:15.174Z,12.52
2019-04-26T02:42:15.207Z,12.54
2019-04-26T02:43:15.148Z,12.45
2019-04-26T02:44:15.137Z,12.39
2019-04-26T02:45:15.124Z,12.38
2019-04-26T02:46:15.129Z,12.26
2019-04-26T02:47:24.110Z,12.16
2019-04-26T02:48:15.101Z,12.27
2019-04-26T02:49:15.088Z,12.15
2019-04-26T02:50:15.082Z,12.15
2019-04-26T02:51:15.058Z,12.12
2019-04-26T02:52:15.055Z,12.11
2019-04-26T02:53:15.087Z,12.05
2019-04-26T02:54:15.042Z,12.09
2019-04-26T02:55:15.016Z,12.01
2019-04-26T02:56:15.006Z,11.97
2019-04-26T02:57:15.001Z,12.08
2019-04-26T02:58:14.981Z,11.89
2019-04-26T02:59:15.016Z,12.06
2019-04-26T03:00:14.963Z,11.93
2019-04-26T03:01:14.958Z,11.86
2019-04-26T03:02:14.940Z,11.87
2019-04-26T03:03:14.938Z,11.94
2019-04-26T03:04:14.912Z,11.83
2019-04-26T03:05:14.919Z,11.80
2019-04-26T03:06:14.891Z,11.72
2019-04-26T03:07:14.895Z,11.61
2019-04-26T03:08:14.893Z,11.59
2019-04-26T03:09:14.856Z,11.52
2019-04-26T03:10:14.868Z,11.46
2019-04-26T03:11:17.309Z,11.38
2019-04-26T03:12:14.821Z,11.38
2019-04-26T03:13:14.863Z,11.32
2019-04-26T03:14:14.824Z,11.36
2019-04-26T03:15:14.817Z,11.46
2019-04-26T03:16:14.784Z,11.46
2019-04-26T03:17:14.772Z,11.49
2019-04-26T03:18:14.759Z,11.54
2019-04-26T03:19:14.772Z,11.67
2019-04-26T03:20:14.773Z,11.62
2019-04-26T03:21:14.733Z,11.70
2019-04-26T03:22:14.721Z,11.68
2019-04-26T03:23:14.707Z,11.70
2019-04-26T03:24:14.689Z,11.72
2019-04-26T03:25:14.684Z,11.65
2019-04-26T03:26:14.724Z,11.70
2019-04-26T03:27:14.655Z,11.77
2019-04-26T03:28:14.650Z,11.74
2019-04-26T03:29:14.658Z,11.86
2019-04-26T03:30:21.485Z,11.87
2019-04-26T03:31:15.655Z,11.82
2019-04-26T03:32:16.647Z,11.74
2019-04-26T03:33:14.734Z,11.71
2019-04-26T03:34:14.856Z,11.67
2019-04-26T03:35:14.564Z,11.70
2019-04-26T03:36:14.620Z,11.62
2019-04-26T03:37:21.053Z,11.57
2019-04-26T03:38:15.539Z,11.67
2019-04-26T03:39:14.523Z,11.59
2019-04-26T03:40:14.522Z,11.57
2019-04-26T03:41:14.499Z,11.57
2019-04-26T03:42:14.499Z,11.65
2019-04-26T03:43:14.500Z,11.71
2019-04-26T03:44:14.469Z,11.56
2019-04-26T03:45:14.461Z,11.57
2019-04-26T03:46:14.460Z,11.53
2019-04-26T03:47:14.449Z,11.46
2019-04-26T03:48:14.458Z,11.52
2019-04-26T03:49:14.446Z,11.41
2019-04-26T03:50:14.421Z,11.47
2019-04-26T03:51:14.396Z,11.50
2019-04-26T03:52:14.407Z,11.46
2019-04-26T03:53:14.366Z,11.39
2019-04-26T03:54:14.371Z,11.43
2019-04-26T03:55:14.368Z,11.41
2019-04-26T03:56:14.346Z,11.46
2019-04-26T03:57:14.340Z,11.41
2019-04-26T03:58:14.309Z,11.46
2019-04-26T03:59:14.306Z,11.44
2019-04-26T04:00:14.289Z,11.49
2019-04-26T04:01:14.292Z,11.46
2019-04-26T04:02:14.306Z,11.41
2019-04-26T04:03:14.261Z,11.47
2019-04-26T04:04:14.245Z,11.61
2019-04-26T04:05:14.262Z,11.68
2019-04-26T04:06:14.223Z,11.67
2019-04-26T04:07:14.253Z,11.71
2019-04-26T04:08:14.201Z,11.72
2019-04-26T04:09:17.867Z,11.77
2019-04-26T04:10:14.175Z,11.77
2019-04-26T04:11:14.225Z,11.83
2019-04-26T04:12:14.172Z,11.83
2019-04-26T04:13:14.147Z,11.87
2019-04-26T04:14:14.252Z,11.87
2019-04-26T04:15:14.148Z,11.77
2019-04-26T04:16:14.192Z,11.89
2019-04-26T04:17:14.101Z,11.86
2019-04-26T04:18:14.095Z,11.97
2019-04-26T04:19:14.089Z,11.99
2019-04-26T04:20:14.070Z,12.05
2019-04-26T04:21:14.067Z,12.06
2019-04-26T04:22:14.070Z,12.04
2019-04-26T04:23:14.078Z,12.05
2019-04-26T04:24:14.026Z,12.05
2019-04-26T04:25:14.017Z,12.09
2019-04-26T04:26:14.011Z,12.15
2019-04-26T04:27:14.047Z,12.15
2019-04-26T04:28:13.996Z,12.13
2019-04-26T04:29:13.968Z,12.12
2019-04-26T04:30:14.017Z,12.12
2019-04-26T04:31:13.968Z,12.19
2019-04-26T04:32:13.938Z,12.20
2019-04-26T04:33:13.958Z,12.21
2019-04-26T04:34:13.918Z,12.33
2019-04-26T04:35:13.913Z,12.29
2019-04-26T04:36:13.905Z,12.26
2019-04-26T04:37:13.885Z,12.45
2019-04-26T04:38:13.893Z,12.41
2019-04-26T04:39:13.859Z,12.42
2019-04-26T04:40:13.869Z,12.44
2019-04-26T04:41:13.839Z,12.48
2019-04-26T04:42:13.826Z,12.46
2019-04-26T04:43:13.867Z,12.45
2019-04-26T04:44:13.812Z,12.56
2019-04-26T04:45:13.787Z,12.60
2019-04-26T04:46:13.901Z,12.63
2019-04-26T04:47:23.620Z,12.64
2019-04-26T04:48:14.770Z,12.67
2019-04-26T04:49:13.742Z,12.67
2019-04-26T04:50:13.746Z,12.70
2019-04-26T04:51:13.737Z,12.70
2019-04-26T04:52:13.712Z,12.70
2019-04-26T04:53:13.725Z,12.64
2019-04-26T04:54:13.684Z,12.67
2019-04-26T04:55:13.673Z,12.66
2019-04-26T04:56:13.712Z,12.67
2019-04-26T04:57:13.657Z,12.71
2019-04-26T04:58:13.643Z,12.66
2019-04-26T04:59:13.646Z,12.67
2019-04-26T05:00:13.646Z,12.69
2019-04-26T05:01:13.608Z,12.64
2019-04-26T05:02:13.613Z,12.74
2019-04-26T05:03:13.636Z,12.69
2019-04-26T05:04:13.582Z,12.70
2019-04-26T05:05:13.564Z,12.64
2019-04-26T05:06:13.589Z,12.66
2019-04-26T05:07:13.553Z,12.64
2019-04-26T05:08:13.525Z,12.70
2019-04-26T05:09:13.525Z,12.78
2019-04-26T05:10:13.514Z,12.82
2019-04-26T05:11:13.500Z,12.89
2019-04-26T05:12:13.495Z,13.04
2019-04-26T05:13:13.489Z,13.83
2019-04-26T05:14:13.461Z,14.71
2019-04-26T05:15:13.456Z,15.41
2019-04-26T05:16:13.463Z,16.03
2019-04-26T05:17:13.449Z,16.65
2019-04-26T05:18:13.421Z,17.03
2019-04-26T05:19:13.429Z,17.43
2019-04-26T05:20:13.394Z,17.66
2019-04-26T05:21:13.382Z,17.81
2019-04-26T05:22:13.373Z,17.95
2019-04-26T05:23:13.413Z,17.33
2019-04-26T05:24:13.367Z,17.57
2019-04-26T05:25:13.354Z,18.04
2019-04-26T05:26:13.335Z,18.36
2019-04-26T05:27:13.332Z,18.52
2019-04-26T05:28:13.303Z,18.67
2019-04-26T05:29:13.322Z,18.91
2019-04-26T05:30:13.335Z,18.70
2019-04-26T05:31:13.280Z,18.61
2019-04-26T05:32:13.259Z,18.70
2019-04-26T05:33:13.252Z,18.95
2019-04-26T05:34:13.249Z,19.28
2019-04-26T05:35:13.252Z,19.25
2019-04-26T05:36:13.215Z,19.65
2019-04-26T05:37:13.248Z,19.94
2019-04-26T05:38:18.522Z,20.28
2019-04-26T05:39:14.188Z,20.23
2019-04-26T05:40:13.174Z,20.03
2019-04-26T05:41:13.174Z,20.02
2019-04-26T05:42:13.177Z,20.15
2019-04-26T05:43:13.141Z,20.21
2019-04-26T05:44:13.141Z,20.00
2019-04-26T05:45:13.116Z,19.97
2019-04-26T05:46:13.129Z,19.80
2019-04-26T05:47:13.098Z,20.02
2019-04-26T05:48:13.088Z,20.42
2019-04-26T05:49:13.083Z,20.42
2019-04-26T05:50:13.090Z,20.34
2019-04-26T05:51:13.054Z,20.54
2019-04-26T05:52:13.708Z,20.54
2019-04-26T05:53:13.039Z,20.54
2019-04-26T05:54:13.022Z,20.53
2019-04-26T05:55:13.015Z,20.34
2019-04-26T05:56:13.012Z,20.46
2019-04-26T05:57:12.984Z,20.68
2019-04-26T05:58:13.001Z,20.90
2019-04-26T05:59:12.978Z,20.95
2019-04-26T06:00:12.949Z,20.93
2019-04-26T06:01:12.939Z,20.61
2019-04-26T06:02:12.967Z,19.84
2019-04-26T06:03:12.928Z,19.79
2019-04-26T06:04:12.906Z,19.79
2019-04-26T06:05:12.894Z,20.24
2019-04-26T06:06:12.889Z,19.73
2019-04-26T06:07:12.898Z,19.53
2019-04-26T06:08:12.895Z,19.58
2019-04-26T06:09:12.852Z,19.57
2019-04-26T06:10:12.883Z,19.78
2019-04-26T06:11:12.846Z,19.91
2019-04-26T06:12:12.824Z,19.61
2019-04-26T06:13:12.813Z,19.54
2019-04-26T06:14:12.812Z,19.51
2019-04-26T06:15:12.788Z,19.42
2019-04-26T06:16:12.771Z,19.36
2019-04-26T06:17:12.777Z,18.97
2019-04-26T06:18:12.768Z,19.13
2019-04-26T06:19:12.770Z,19.23
2019-04-26T06:20:22.213Z,19.76
2019-04-26T06:21:13.724Z,19.75
2019-04-26T06:22:12.732Z,19.84
2019-04-26T06:23:12.697Z,19.69
2019-04-26T06:24:12.731Z,19.88
2019-04-26T06:25:12.692Z,19.47
2019-04-26T06:26:12.662Z,19.43
2019-04-26T06:27:14.241Z,19.05
2019-04-26T06:28:12.646Z,19.25
2019-04-26T06:29:12.658Z,19.24
2019-04-26T06:30:12.647Z,19.10
2019-04-26T06:31:12.615Z,19.36
2019-04-26T06:32:12.608Z,19.69
2019-04-26T06:33:12.590Z,20.12
2019-04-26T06:34:12.572Z,19.80
2019-04-26T06:35:12.623Z,20.00
2019-04-26T06:36:12.648Z,20.03
2019-04-26T06:37:12.544Z,19.75
2019-04-26T06:38:12.531Z,20.13
2019-04-26T06:39:12.544Z,20.61
2019-04-26T06:40:12.507Z,20.77
2019-04-26T06:41:12.529Z,20.76
2019-04-26T06:42:12.485Z,20.81
2019-04-26T06:43:12.489Z,20.53
2019-04-26T06:44:12.477Z,20.53
2019-04-26T06:45:12.454Z,20.58
2019-04-26T06:46:12.453Z,20.66
2019-04-26T06:47:12.457Z,20.43
2019-04-26T06:48:12.422Z,20.64
2019-04-26T06:49:12.423Z,20.24
2019-04-26T06:50:12.424Z,19.76
2019-04-26T06:51:23.551Z,19.70
2019-04-26T06:52:13.407Z,19.80
2019-04-26T06:53:12.376Z,19.51
2019-04-26T06:54:12.378Z,19.63
2019-04-26T06:55:12.339Z,19.93
2019-04-26T06:56:12.337Z,20.05
2019-04-26T06:57:15.165Z,19.97
2019-04-26T06:58:13.105Z,20.06
2019-04-26T06:59:12.300Z,19.98
2019-04-26T07:00:12.294Z,20.35
2019-04-26T07:01:12.291Z,20.79
2019-04-26T07:02:12.266Z,21.27
2019-04-26T07:03:12.285Z,21.59
2019-04-26T07:04:12.703Z,21.81
2019-04-26T07:05:15.074Z,20.99
2019-04-26T07:06:12.268Z,20.76
2019-04-26T07:07:13.340Z,20.79
2019-04-26T07:08:12.713Z,21.05
2019-04-26T07:09:12.189Z,20.72
2019-04-26T07:10:12.176Z,21.14
2019-04-26T07:11:12.204Z,21.48
2019-04-26T07:12:12.155Z,22.12
2019-04-26T07:13:14.754Z,22.52
2019-04-26T07:14:12.153Z,22.77
2019-04-26T07:15:12.201Z,22.44
2019-04-26T07:16:22.458Z,22.38
2019-04-26T07:17:13.098Z,22.65
2019-04-26T07:18:12.828Z,22.80
2019-04-26T07:19:13.252Z,22.32
2019-04-26T07:20:12.091Z,22.10
2019-04-26T07:21:12.064Z,22.13
2019-04-26T07:22:12.047Z,21.94
2019-04-26T07:23:12.665Z,21.48
2019-04-26T07:24:12.079Z,20.58
2019-04-26T07:25:12.054Z,20.25
2019-04-26T07:26:12.005Z,19.55
2019-04-26T07:27:13.017Z,19.87
2019-04-26T07:28:12.471Z,19.63
2019-04-26T07:29:12.001Z,20.08
2019-04-26T07:30:12.218Z,20.65
2019-04-26T07:31:13.059Z,21.35
2019-04-26T07:32:11.940Z,21.35
2019-04-26T07:33:12.644Z,21.09
2019-04-26T07:34:11.945Z,21.60
2019-04-26T07:35:12.948Z,21.11
2019-04-26T07:36:12.075Z,20.10
2019-04-26T07:37:11.938Z,20.16
2019-04-26T07:38:11.875Z,20.59
2019-04-26T07:39:19.519Z,20.30
2019-04-26T07:40:12.851Z,20.28
2019-04-26T07:41:11.892Z,20.66
2019-04-26T07:42:11.845Z,21.32
2019-04-26T07:43:12.546Z,21.97
2019-04-26T07:44:11.892Z,22.29
2019-04-26T07:45:12.405Z,22.07
2019-04-26T07:46:12.678Z,22.10
2019-04-26T07:47:14.281Z,21.74
2019-04-26T07:48:11.765Z,20.98
2019-04-26T07:49:12.530Z,21.20
2019-04-26T07:50:11.747Z,21.60
2019-04-26T07:51:11.738Z,21.91
2019-04-26T07:52:12.654Z,21.90
2019-04-26T07:53:11.715Z,21.88
2019-04-26T07:54:11.741Z,21.91
2019-04-26T07:55:12.807Z,21.45
2019-04-26T07:56:11.684Z,21.23
2019-04-26T07:57:12.837Z,20.47
2019-04-26T07:58:11.658Z,20.23
2019-04-26T07:59:12.770Z,19.42
2019-04-26T08:00:11.650Z,19.24
2019-04-26T08:01:11.961Z,19.20
2019-04-26T08:02:11.636Z,19.11
2019-04-26T08:03:11.621Z,19.13
2019-04-26T08:04:11.601Z,19.02
2019-04-26T08:05:11.607Z,19.08
2019-04-26T08:06:11.620Z,18.99
2019-04-26T08:07:11.563Z,18.62
2019-04-26T08:08:11.591Z,18.94
2019-04-26T08:09:25.091Z,19.21
2019-04-26T08:10:12.567Z,20.25
2019-04-26T08:11:11.534Z,20.76
2019-04-26T08:12:12.201Z,21.36
2019-04-26T08:13:11.495Z,21.50
2019-04-26T08:14:12.520Z,21.51
2019-04-26T08:15:11.557Z,21.78
2019-04-26T08:16:12.363Z,21.88
2019-04-26T08:17:12.511Z,21.57
2019-04-26T08:18:11.441Z,21.81
2019-04-26T08:19:12.593Z,22.22
2019-04-26T08:20:12.594Z,22.47
2019-04-26T08:21:14.402Z,22.27
2019-04-26T08:22:20.435Z,22.25
2019-04-26T08:23:35.100Z,21.46
2019-04-26T08:24:12.380Z,21.26
2019-04-26T08:25:12.424Z,20.95
2019-04-26T08:26:11.353Z,21.48
2019-04-26T08:27:18.701Z,21.67
2019-04-26T08:28:12.348Z,21.74
2019-04-26T08:29:11.336Z,20.54
2019-04-26T08:30:14.390Z,20.87
2019-04-26T08:31:11.301Z,21.42
2019-04-26T08:32:11.433Z,21.23
2019-04-26T08:33:13.059Z,21.38
2019-04-26T08:34:12.333Z,21.76
2019-04-26T08:35:16.102Z,22.01
2019-04-26T08:36:12.734Z,21.92
2019-04-26T08:37:11.242Z,22.25
2019-04-26T08:38:15.975Z,21.56
2019-04-26T08:39:13.024Z,21.88
2019-04-26T08:40:16.314Z,22.41
2019-04-26T08:41:13.371Z,22.68
2019-04-26T08:42:18.150Z,22.31
2019-04-26T08:43:12.195Z,21.92
2019-04-26T08:44:11.297Z,22.12
2019-04-26T08:45:13.549Z,22.10
2019-04-26T08:46:12.978Z,22.02
2019-04-26T08:47:24.382Z,21.98
2019-04-26T08:48:12.266Z,21.90
2019-04-26T08:49:11.199Z,20.95
2019-04-26T08:50:13.341Z,21.45
2019-04-26T08:51:11.086Z,21.36
2019-04-26T08:52:14.674Z,20.77
2019-04-26T08:53:11.073Z,21.23
2019-04-26T08:54:11.066Z,21.75
2019-04-26T08:55:11.043Z,21.81
2019-04-26T08:56:11.666Z,21.79
2019-04-26T08:57:11.033Z,22.20
2019-04-26T08:58:11.010Z,22.06
2019-04-26T08:59:11.021Z,21.76
2019-04-26T09:00:11.001Z,21.63
2019-04-26T09:01:10.978Z,21.51
2019-04-26T09:02:10.968Z,20.96
2019-04-26T09:03:12.036Z,20.77
2019-04-26T09:04:10.947Z,20.54
2019-04-26T09:05:10.954Z,20.62
2019-04-26T09:06:10.924Z,20.83
2019-04-26T09:07:10.915Z,21.23
2019-04-26T09:08:10.917Z,20.98
2019-04-26T09:09:10.894Z,21.26
2019-04-26T09:10:11.478Z,21.67
2019-04-26T09:11:22.782Z,21.48
2019-04-26T09:12:22.516Z,21.60
2019-04-26T09:13:11.849Z,22.12
2019-04-26T09:14:10.859Z,21.57
2019-04-26T09:15:10.847Z,21.48
2019-04-26T09:16:10.877Z,21.20
2019-04-26T09:17:10.806Z,21.66
2019-04-26T09:18:10.797Z,21.92
2019-04-26T09:19:10.815Z,21.72
2019-04-26T09:20:10.800Z,21.79
2019-04-26T09:21:13.429Z,22.59
2019-04-26T09:22:13.386Z,22.41
2019-04-26T09:23:10.749Z,21.46
2019-04-26T09:24:10.737Z,21.38
2019-04-26T09:25:10.739Z,21.08
2019-04-26T09:26:12.495Z,20.76
2019-04-26T09:27:10.725Z,21.17
2019-04-26T09:28:10.689Z,21.56
2019-04-26T09:29:10.703Z,21.83
2019-04-26T09:30:10.670Z,22.31
2019-04-26T09:31:10.668Z,22.83
2019-04-26T09:32:10.652Z,22.72
2019-04-26T09:33:10.674Z,22.53
2019-04-26T09:34:11.476Z,22.75
2019-04-26T09:35:11.320Z,22.65
2019-04-26T09:36:10.609Z,22.14
2019-04-26T09:37:10.610Z,21.67
2019-04-26T09:38:10.602Z,21.46
2019-04-26T09:39:10.577Z,21.53
2019-04-26T09:40:10.981Z,21.92
2019-04-26T09:41:10.566Z,22.12
2019-04-26T09:42:10.564Z,21.69
2019-04-26T09:43:14.850Z,21.85
2019-04-26T09:44:11.524Z,21.38
2019-04-26T09:45:10.513Z,21.14
2019-04-26T09:46:10.552Z,20.77
2019-04-26T09:47:10.495Z,20.15
2019-04-26T09:48:10.478Z,20.41
2019-04-26T09:49:10.467Z,19.88
2019-04-26T09:50:11.202Z,20.25
2019-04-26T09:51:10.449Z,20.33
2019-04-26T09:52:10.463Z,20.89
2019-04-26T09:53:10.431Z,21.05
2019-04-26T09:54:10.425Z,21.27
2019-04-26T09:55:10.402Z,21.46
2019-04-26T09:56:10.393Z,21.69
2019-04-26T09:57:10.415Z,21.38
2019-04-26T09:58:10.387Z,21.23
2019-04-26T09:59:10.361Z,20.90
2019-04-26T10:00:13.988Z,20.54
2019-04-26T10:01:10.340Z,20.68
2019-04-26T10:02:10.326Z,20.93
2019-04-26T10:03:10.783Z,21.20
2019-04-26T10:04:10.314Z,21.23
2019-04-26T10:05:12.082Z,21.19
2019-04-26T10:06:10.293Z,20.91
2019-04-26T10:07:10.285Z,20.91
2019-04-26T10:08:13.021Z,20.64
2019-04-26T10:09:10.259Z,20.65
2019-04-26T10:10:22.109Z,20.54
2019-04-26T10:11:11.240Z,20.58
2019-04-26T10:12:10.248Z,20.23
2019-04-26T10:13:10.208Z,20.15
2019-04-26T10:14:10.197Z,19.91
2019-04-26T10:15:10.203Z,19.88
2019-04-26T10:16:10.176Z,19.35
2019-04-26T10:17:11.542Z,19.21
2019-04-26T10:18:10.160Z,19.10
2019-04-26T10:19:10.148Z,19.24
2019-04-26T10:20:10.148Z,19.63
2019-04-26T10:21:10.120Z,19.78
2019-04-26T10:22:10.116Z,19.93
2019-04-26T10:23:10.128Z,19.79
2019-04-26T10:24:10.092Z,19.60
2019-04-26T10:25:16.521Z,19.42
2019-04-26T10:26:11.077Z,19.35
2019-04-26T10:27:10.063Z,19.32
2019-04-26T10:28:11.763Z,19.35
2019-04-26T10:29:11.048Z,19.53
2019-04-26T10:30:10.056Z,19.38
2019-04-26T10:31:13.476Z,19.20
2019-04-26T10:32:10.026Z,19.18
2019-04-26T10:33:10.003Z,19.36
2019-04-26T10:34:11.854Z,19.46
2019-04-26T10:35:09.995Z,19.38
2019-04-26T10:36:09.977Z,19.40
2019-04-26T10:37:09.947Z,19.10
2019-04-26T10:38:09.976Z,19.21
2019-04-26T10:39:09.929Z,18.72
2019-04-26T10:40:09.931Z,18.67
2019-04-26T10:41:09.927Z,18.54
2019-04-26T10:42:09.891Z,18.44
2019-04-26T10:43:09.936Z,18.33
2019-04-26T10:44:09.870Z,18.42
2019-04-26T10:45:10.415Z,18.52
2019-04-26T10:46:09.862Z,18.12
2019-04-26T10:47:09.879Z,18.15
2019-04-26T10:48:13.863Z,18.34
2019-04-26T10:49:12.093Z,18.43
2019-04-26T10:50:09.851Z,18.67
2019-04-26T10:51:09.795Z,18.79
2019-04-26T10:52:11.889Z,18.90
2019-04-26T10:54:24.514Z,18.68
2019-04-26T10:55:24.489Z,18.52
2019-04-26T10:56:25.339Z,18.49
2019-04-26T10:57:24.477Z,18.47
2019-04-26T10:58:24.491Z,18.29
2019-04-26T10:59:24.455Z,17.84
2019-04-26T11:00:24.454Z,17.84
2019-04-26T11:01:24.455Z,17.84
2019-04-26T11:02:33.078Z,17.63
2019-04-26T11:03:24.452Z,17.76
2019-04-26T11:04:25.868Z,17.70
2019-04-26T11:05:24.379Z,17.50
2019-04-26T11:06:27.939Z,17.40
2019-04-26T11:07:24.370Z,17.17
2019-04-26T11:08:24.363Z,17.06
2019-04-26T11:09:24.335Z,16.96
2019-04-26T11:10:24.578Z,17.07
2019-04-26T11:11:24.337Z,17.18
2019-04-26T11:12:24.300Z,17.32
2019-04-26T11:13:24.337Z,17.32
2019-04-26T11:14:24.291Z,17.33
2019-04-26T11:15:24.290Z,17.38
2019-04-26T11:16:24.258Z,17.41
2019-04-26T11:17:24.245Z,17.32
2019-04-26T11:18:27.713Z,17.33
2019-04-26T11:19:24.254Z,17.26
2019-04-26T11:20:24.211Z,17.15
2019-04-26T11:21:24.222Z,17.06
2019-04-26T11:22:29.247Z,17.20
2019-04-26T11:23:25.250Z,17.22
2019-04-26T11:24:24.178Z,17.32
2019-04-26T11:25:24.715Z,17.13
2019-04-26T11:26:24.150Z,16.85
2019-04-26T11:27:24.134Z,16.90
2019-04-26T11:28:24.143Z,16.93
2019-04-26T11:29:24.973Z,16.93
2019-04-26T11:30:24.117Z,16.90
2019-04-26T11:31:27.834Z,16.81
2019-04-26T11:32:25.077Z,16.70
2019-04-26T11:33:24.089Z,16.67
2019-04-26T11:34:25.191Z,16.71
2019-04-26T11:35:24.062Z,16.60
2019-04-26T11:36:24.124Z,16.55
2019-04-26T11:37:24.023Z,16.50
2019-04-26T11:38:27.018Z,16.50
2019-04-26T11:39:28.013Z,16.49
2019-04-26T11:40:24.007Z,16.55
2019-04-26T11:41:24.140Z,16.45
2019-04-26T11:42:24.031Z,16.60
2019-04-26T11:43:24.012Z,16.58
2019-04-26T11:44:27.557Z,16.55
2019-04-26T11:45:23.933Z,16.56
2019-04-26T11:46:29.105Z,16.59
2019-04-26T11:47:24.955Z,16.62
2019-04-26T11:48:25.540Z,16.68
2019-04-26T11:49:24.916Z,16.67
2019-04-26T11:50:23.904Z,16.52
2019-04-26T11:51:27.540Z,16.58
2019-04-26T11:52:23.884Z,16.59
2019-04-26T11:53:23.857Z,16.49
2019-04-26T11:54:23.850Z,16.55
2019-04-26T11:55:25.335Z,16.58
2019-04-26T11:56:24.877Z,16.68
2019-04-26T11:57:23.819Z,16.68
2019-04-26T11:58:23.875Z,16.60
2019-04-26T11:59:27.001Z,16.52
2019-04-26T12:00:27.422Z,16.49
2019-04-26T12:01:23.780Z,16.55
2019-04-26T12:02:23.745Z,16.59
2019-04-26T12:03:24.879Z,16.78
2019-04-26T12:04:23.736Z,16.68
2019-04-26T12:05:23.737Z,16.63
2019-04-26T12:06:23.721Z,16.62
2019-04-26T12:07:23.698Z,16.75
2019-04-26T12:08:23.699Z,16.65
2019-04-26T12:09:23.742Z,16.58
2019-04-26T12:10:23.665Z,16.58
2019-04-26T12:11:31.536Z,16.58
2019-04-26T12:12:24.630Z,16.45
2019-04-26T12:13:25.016Z,16.48
2019-04-26T12:14:23.647Z,16.44
2019-04-26T12:15:30.139Z,16.48
2019-04-26T12:16:24.601Z,16.50
2019-04-26T12:17:23.585Z,16.49
2019-04-26T12:18:23.673Z,16.45
2019-04-26T12:19:23.585Z,16.49
2019-04-26T12:20:26.819Z,16.48
2019-04-26T12:21:23.531Z,16.49
2019-04-26T12:22:23.520Z,16.50
2019-04-26T12:23:23.532Z,16.53
2019-04-26T12:24:25.363Z,16.56
2019-04-26T12:25:24.520Z,16.60
2019-04-26T12:26:23.504Z,16.45
2019-04-26T12:27:26.476Z,16.38
2019-04-26T12:28:24.473Z,16.26
2019-04-26T12:29:23.449Z,16.23
2019-04-26T12:30:26.578Z,16.20
2019-04-26T12:31:23.427Z,16.22
2019-04-26T12:32:23.423Z,16.04
2019-04-26T12:33:23.397Z,15.94
2019-04-26T12:34:23.388Z,15.86
2019-04-26T12:35:23.401Z,15.72
2019-04-26T12:36:23.365Z,15.74
2019-04-26T12:37:23.354Z,15.61
2019-04-26T12:38:24.134Z,15.51
2019-04-26T12:39:23.344Z,15.57
2019-04-26T12:40:23.341Z,15.54
2019-04-26T12:41:39.507Z,15.59
2019-04-26T12:42:24.299Z,15.63
2019-04-26T12:43:24.593Z,15.43
2019-04-26T12:44:23.304Z,15.60
2019-04-26T12:45:23.268Z,15.38
2019-04-26T12:46:27.263Z,15.49
2019-04-26T12:47:24.245Z,15.68
2019-04-26T12:48:23.232Z,15.82
2019-04-26T12:49:24.241Z,15.92
2019-04-26T12:50:23.209Z,16.06
2019-04-26T12:51:23.215Z,16.04
2019-04-26T12:52:23.215Z,16.04
2019-04-26T12:53:26.681Z,16.22